Time;durP1;ratioP1;P1;durP2;ratioP2;P2;SDS_P1;SDS_P2;PMS_P1;PMS_P2;Temp;Humidity;BMP_temperature;BMP_pressure;BME280_temperature;BME280_humidity;BME280_pressure;Samples;Min_cycle;Max_cycle;Signal;HPM_P1;HPM_P2
2023/09/07 00:00:49;;;;;;;11.77;6.70;;;;;;;;;;5052242;28;20151;-74
2023/09/07 00:03:17;;;;;;;12.95;7.00;;;;;;;;;;5052258;28;20057;-74
2023/09/07 00:05:45;;;;;;;9.80;6.45;;;;;;;;;;5034478;28;20079;-73
2023/09/07 00:08:15;;;;;;;9.82;6.95;;;;;;;;;;5034964;28;20131;-74
2023/09/07 00:11:13;;;;;;;12.15;7.25;;;;;;;;;;5052201;28;20025;-74
2023/09/07 00:13:46;;;;;;;16.65;8.65;;;;;;;;;;5034303;28;20031;-75
2023/09/07 00:16:12;;;;;;;9.27;7.65;;;;;;;;;;5052299;28;20075;-75
2023/09/07 00:18:42;;;;;;;10.05;7.55;;;;;;;;;;5017891;28;20519;-74
2023/09/07 00:21:12;;;;;;;12.30;7.72;;;;;;;;;;5052419;28;20028;-73
2023/09/07 00:23:40;;;;;;;16.83;7.75;;;;;;;;;;5033814;28;20083;-74
2023/09/07 00:26:06;;;;;;;13.70;8.40;;;;;;;;;;5033841;28;20032;-75
2023/09/07 00:28:32;;;;;;;11.70;8.68;;;;;;;;;;5051991;28;20035;-74
2023/09/07 00:31:01;;;;;;;9.43;7.80;;;;;;;;;;5034070;28;20029;-73
2023/09/07 00:33:27;;;;;;;10.27;7.75;;;;;;;;;;5033978;28;20021;-73
2023/09/07 00:35:56;;;;;;;12.27;8.65;;;;;;;;;;5034198;28;20029;-74
2023/09/07 00:38:34;;;;;;;14.52;7.88;;;;;;;;;;5033958;28;20116;-74
2023/09/07 00:41:00;;;;;;;10.32;7.35;;;;;;;;;;5052977;28;20528;-75
2023/09/07 00:43:33;;;;;;;9.75;7.82;;;;;;;;;;5034978;28;20029;-75
2023/09/07 00:46:03;;;;;;;12.60;7.97;;;;;;;;;;5034696;28;20070;-75
2023/09/07 00:48:36;;;;;;;12.55;9.18;;;;;;;;;;5034792;28;20048;-73
2023/09/07 00:51:08;;;;;;;11.75;7.60;;;;;;;;;;5054017;28;20033;-74
2023/09/07 00:53:43;;;;;;;12.45;9.13;;;;;;;;;;5054632;28;20021;-75
2023/09/07 00:56:10;;;;;;;12.70;7.80;;;;;;;;;;5039097;28;20053;-72
2023/09/07 00:58:37;;;;;;;11.35;7.35;;;;;;;;;;5056068;28;20063;-75
2023/09/07 01:01:03;;;;;;;9.57;8.00;;;;;;;;;;5052188;28;20024;-74
2023/09/07 01:03:32;;;;;;;13.68;8.30;;;;;;;;;;5035196;28;20408;-75
2023/09/07 01:06:18;;;;;;;11.25;7.68;;;;;;;;;;5052327;28;20052;-75
2023/09/07 01:08:57;;;;;;;10.25;7.45;;;;;;;;;;5034934;28;20041;-73
2023/09/07 01:11:23;;;;;;;11.13;6.78;;;;;;;;;;5034753;28;20025;-75
2023/09/07 01:13:56;;;;;;;9.77;7.75;;;;;;;;;;5052921;28;20533;-74
2023/09/07 01:16:25;;;;;;;10.15;7.30;;;;;;;;;;5036012;28;20028;-74
2023/09/07 01:18:52;;;;;;;9.93;7.60;;;;;;;;;;5034953;28;20029;-74
2023/09/07 01:21:26;;;;;;;32.63;9.30;;;;;;;;;;5034867;28;20081;-74
2023/09/07 01:24:11;;;;;;;;;;;;;;;;;;5052821;28;20028;-74
2023/09/07 01:26:38;;;;;;;16.58;9.43;;;;;;;;;;5035248;28;19908;-74
2023/09/07 01:29:09;;;;;;;10.93;8.10;;;;;;;;;;5034327;28;20366;-73
2023/09/07 01:31:39;;;;;;;10.48;7.40;;;;;;;;;;5034637;28;20135;-74
2023/09/07 01:34:12;;;;;;;9.85;7.55;;;;;;;;;;5034407;28;20052;-73
2023/09/07 01:36:48;;;;;;;10.57;7.05;;;;;;;;;;5051669;28;20616;-74
2023/09/07 01:39:24;;;;;;;11.88;7.30;;;;;;;;;;5034472;28;20115;-74
2023/09/07 01:42:14;;;;;;;11.23;7.88;;;;;;;;;;5035344;28;20029;-74
2023/09/07 01:44:44;;;;;;;17.33;7.20;;;;;;;;;;5022953;28;20468;-74
2023/09/07 01:47:19;;;;;;;11.52;8.15;;;;;;;;;;5052920;28;20102;-74
2023/09/07 01:49:46;;;;;;;14.65;7.85;;;;;;;;;;5035445;28;20086;-74
2023/09/07 01:52:12;;;;;;;11.60;7.95;;;;;;;;;;5052644;28;20029;-75
2023/09/07 01:54:49;;;;;;;12.32;7.65;;;;;;;;;;5034334;28;20052;-73
2023/09/07 01:57:15;;;;;;;10.95;7.60;;;;;;;;;;5036646;28;20075;-73
2023/09/07 01:59:41;;;;;;;10.73;7.45;;;;;;;;;;5055822;28;20017;-74
2023/09/07 02:02:10;;;;;;;10.18;7.75;;;;;;;;;;5038410;28;20036;-73
2023/09/07 02:04:49;;;;;;;10.60;7.72;;;;;;;;;;5037498;28;20032;-74
2023/09/07 02:07:17;;;;;;;10.10;7.70;;;;;;;;;;5038555;28;20020;-73
2023/09/07 02:09:46;;;;;;;11.48;8.13;;;;;;;;;;5038204;28;20128;-74
2023/09/07 02:12:15;;;;;;;11.75;8.05;;;;;;;;;;5022456;28;20056;-73
2023/09/07 02:14:41;;;;;;;11.23;8.80;;;;;;;;;;5037713;28;20123;-73
2023/09/07 02:17:07;;;;;;;10.80;6.95;;;;;;;;;;5055750;28;20044;-74
2023/09/07 02:19:42;;;;;;;13.50;7.80;;;;;;;;;;5037330;28;20028;-74
2023/09/07 02:22:09;;;;;;;10.75;7.57;;;;;;;;;;5055905;28;20049;-74
2023/09/07 02:24:38;;;;;;;16.27;7.85;;;;;;;;;;5037836;28;20021;-73
2023/09/07 02:27:17;;;;;;;13.05;8.43;;;;;;;;;;5038097;28;20021;-74
2023/09/07 02:29:47;;;;;;;12.68;8.10;;;;;;;;;;5038135;28;20021;-75
2023/09/07 02:32:18;;;;;;;16.35;8.18;;;;;;;;;;5056383;28;20074;-74
2023/09/07 02:35:00;;;;;;;13.75;7.20;;;;;;;;;;5037519;28;20040;-73
2023/09/07 02:37:33;;;;;;;10.65;7.57;;;;;;;;;;5051185;28;20033;-74
2023/09/07 02:40:00;;;;;;;13.68;9.60;;;;;;;;;;5021489;28;20029;-73
2023/09/07 02:42:51;;;;;;;11.45;8.15;;;;;;;;;;5055058;28;20519;-74
2023/09/07 02:45:21;;;;;;;17.27;9.05;;;;;;;;;;5037399;28;20064;-75
2023/09/07 02:47:50;;;;;;;14.13;8.35;;;;;;;;;;5055687;28;20059;-73
2023/09/07 02:50:17;;;;;;;13.93;7.88;;;;;;;;;;5037653;28;20033;-74
2023/09/07 02:52:54;;;;;;;16.75;8.82;;;;;;;;;;5053331;28;20500;-74
2023/09/07 02:55:21;;;;;;;10.63;7.80;;;;;;;;;;5055373;28;20036;-74
2023/09/07 02:57:51;;;;;;;11.43;8.02;;;;;;;;;;5055921;28;20041;-74
2023/09/07 03:00:24;;;;;;;12.38;8.65;;;;;;;;;;5056878;28;20120;-74
2023/09/07 03:02:56;;;;;;;13.95;8.68;;;;;;;;;;5058059;28;20543;-74
2023/09/07 03:05:23;;;;;;;22.70;8.40;;;;;;;;;;5041207;28;20025;-74
2023/09/07 03:07:49;;;;;;;11.23;8.43;;;;;;;;;;5042099;28;20540;-75
2023/09/07 03:10:17;;;;;;;11.02;8.20;;;;;;;;;;5043211;28;20548;-75
2023/09/07 03:12:45;;;;;;;12.88;8.52;;;;;;;;;;5042709;28;20055;-73
2023/09/07 03:15:15;;;;;;;19.50;8.07;;;;;;;;;;5040607;28;20020;-73
2023/09/07 03:17:41;;;;;;;21.17;8.70;;;;;;;;;;5038286;28;20396;-74
2023/09/07 03:20:17;;;;;;;16.02;8.60;;;;;;;;;;5043631;28;20075;-74
2023/09/07 03:22:46;;;;;;;13.25;8.88;;;;;;;;;;5046869;28;20025;-74
2023/09/07 03:25:20;;;;;;;10.43;7.95;;;;;;;;;;5038250;28;20024;-73
2023/09/07 03:27:48;;;;;;;11.95;7.50;;;;;;;;;;5037377;28;20032;-73
2023/09/07 03:30:15;;;;;;;23.33;10.43;;;;;;;;;;5037562;28;20021;-73
2023/09/07 03:32:44;;;;;;;10.52;7.45;;;;;;;;;;5036705;28;20114;-73
2023/09/07 03:35:13;;;;;;;13.52;8.00;;;;;;;;;;5054351;28;20021;-75
2023/09/07 03:37:39;;;;;;;15.48;8.18;;;;;;;;;;5036512;28;20025;-74
2023/09/07 03:40:09;;;;;;;13.00;8.02;;;;;;;;;;5036355;28;20492;-74
2023/09/07 03:42:35;;;;;;;14.70;8.18;;;;;;;;;;5036191;28;20473;-74
2023/09/07 03:45:05;;;;;;;13.63;8.13;;;;;;;;;;5036761;28;20025;-74
2023/09/07 03:47:31;;;;;;;12.02;8.25;;;;;;;;;;5054750;28;20032;-74
2023/09/07 03:50:01;;;;;;;11.95;8.13;;;;;;;;;;5036618;28;20051;-75
2023/09/07 03:52:27;;;;;;;13.38;9.20;;;;;;;;;;5036555;28;20032;-74
2023/09/07 03:55:00;;;;;;;13.77;8.82;;;;;;;;;;5035207;28;20035;-74
2023/09/07 03:57:30;;;;;;;15.10;8.50;;;;;;;;;;5032047;28;20056;-74
2023/09/07 04:00:07;;;;;;;15.75;8.10;;;;;;;;;;5032232;28;20347;-74
2023/09/07 04:02:49;;;;;;;14.05;9.48;;;;;;;;;;5032015;28;20057;-75
2023/09/07 04:05:17;;;;;;;;;;;;;;;;;;5030897;28;20025;-75
2023/09/07 04:07:42;;;;;;;11.50;8.13;;;;;;;;;;5032302;28;19909;-74
2023/09/07 04:10:29;;;;;;;16.55;10.77;;;;;;;;;;5032275;28;20117;-73
2023/09/07 04:12:57;;;;;;;18.55;9.48;;;;;;;;;;5032053;28;20075;-73
2023/09/07 04:15:25;;;;;;;16.77;8.68;;;;;;;;;;5031876;28;20579;-74
2023/09/07 04:17:55;;;;;;;15.48;8.57;;;;;;;;;;5032056;28;20033;-74
2023/09/07 04:20:43;;;;;;;11.48;9.25;;;;;;;;;;5032987;28;20440;-74
2023/09/07 04:23:12;;;;;;;15.35;9.40;;;;;;;;;;5032504;28;20037;-75
2023/09/07 04:25:39;;;;;;;15.18;8.25;;;;;;;;;;5033533;28;20421;-75
2023/09/07 04:28:09;;;;;;;14.48;9.55;;;;;;;;;;5032801;28;20037;-73
2023/09/07 04:30:44;;;;;;;13.77;8.48;;;;;;;;;;5033064;28;20028;-73
2023/09/07 04:33:11;;;;;;;11.77;8.55;;;;;;;;;;5032941;28;20032;-76
2023/09/07 04:35:38;;;;;;;10.55;8.10;;;;;;;;;;5032725;28;20775;-73
2023/09/07 04:38:04;;;;;;;10.90;9.10;;;;;;;;;;5032729;28;20366;-75
2023/09/07 04:40:30;;;;;;;12.48;9.07;;;;;;;;;;5032035;28;20041;-74
2023/09/07 04:42:56;;;;;;;17.45;10.10;;;;;;;;;;5031284;28;20565;-72
2023/09/07 04:45:29;;;;;;;13.57;8.85;;;;;;;;;;5029558;28;20128;-74
2023/09/07 04:47:57;;;;;;;16.52;9.32;;;;;;;;;;5046354;28;20437;-75
2023/09/07 04:50:23;;;;;;;15.40;9.68;;;;;;;;;;5035552;28;20029;-74
2023/09/07 04:52:52;;;;;;;15.07;9.77;;;;;;;;;;5035692;28;20024;-74
2023/09/07 04:55:28;;;;;;;17.33;9.50;;;;;;;;;;5030286;28;20048;-74
2023/09/07 04:57:54;;;;;;;19.50;9.90;;;;;;;;;;5016548;28;20121;-75
2023/09/07 05:00:26;;;;;;;14.38;9.20;;;;;;;;;;5034020;28;20101;-74
2023/09/07 05:02:53;;;;;;;16.23;10.50;;;;;;;;;;5016307;28;20030;-74
2023/09/07 05:05:43;;;;;;;13.68;10.20;;;;;;;;;;5033416;28;20108;-73
2023/09/07 05:08:09;;;;;;;14.13;8.88;;;;;;;;;;5016761;28;20030;-75
2023/09/07 05:10:42;;;;;;;13.60;9.93;;;;;;;;;;5015979;28;20124;-74
2023/09/07 05:13:24;;;;;;;14.02;9.40;;;;;;;;;;5015674;28;20025;-74
2023/09/07 05:15:56;;;;;;;13.02;8.88;;;;;;;;;;5015249;28;20092;-74
2023/09/07 05:18:26;;;;;;;18.98;9.65;;;;;;;;;;5015817;28;20029;-75
2023/09/07 05:20:55;;;;;;;17.38;9.18;;;;;;;;;;5015281;28;20029;-74
2023/09/07 05:23:30;;;;;;;14.75;8.65;;;;;;;;;;5015477;28;20055;-74
2023/09/07 05:26:01;;;;;;;14.40;10.25;;;;;;;;;;5015117;28;20029;-74
2023/09/07 05:28:27;;;;;;;14.68;9.88;;;;;;;;;;4999550;28;20025;-73
2023/09/07 05:30:56;;;;;;;14.80;10.30;;;;;;;;;;5033563;28;20022;-74
2023/09/07 05:33:33;;;;;;;20.83;10.18;;;;;;;;;;5027300;28;20504;-74
2023/09/07 05:36:04;;;;;;;17.60;10.10;;;;;;;;;;5039007;28;20460;-75
2023/09/07 05:38:33;;;;;;;13.35;8.90;;;;;;;;;;5022928;28;20018;-76
2023/09/07 05:40:59;;;;;;;15.55;10.60;;;;;;;;;;5046222;28;20056;-75
2023/09/07 05:43:29;;;;;;;12.10;9.70;;;;;;;;;;5026088;28;20029;-76
2023/09/07 05:46:02;;;;;;;14.18;10.50;;;;;;;;;;5019356;28;20472;-76
2023/09/07 05:48:29;;;;;;;19.15;10.10;;;;;;;;;;5018341;28;20029;-75
2023/09/07 05:51:01;;;;;;;13.38;9.18;;;;;;;;;;5000066;28;20481;-76
2023/09/07 05:53:28;;;;;;;18.38;11.05;;;;;;;;;;5035619;28;20044;-75
2023/09/07 05:56:02;;;;;;;18.02;9.85;;;;;;;;;;5032091;28;20453;-75
2023/09/07 05:58:28;;;;;;;18.23;10.88;;;;;;;;;;5033755;28;20034;-75
2023/09/07 06:00:54;;;;;;;21.10;12.15;;;;;;;;;;5017141;28;20021;-75
2023/09/07 06:03:21;;;;;;;13.85;10.25;;;;;;;;;;5035532;28;20033;-76
2023/09/07 06:05:51;;;;;;;19.20;11.85;;;;;;;;;;5047616;28;20037;-74
2023/09/07 06:08:17;;;;;;;16.45;10.35;;;;;;;;;;5022389;28;20033;-74
2023/09/07 06:10:53;;;;;;;23.73;12.93;;;;;;;;;;5055745;28;20488;-75
2023/09/07 06:13:19;;;;;;;15.73;11.02;;;;;;;;;;5055221;28;20171;-76
2023/09/07 06:15:45;;;;;;;18.05;10.80;;;;;;;;;;5052695;28;20065;-75
2023/09/07 06:18:14;;;;;;;20.90;10.27;;;;;;;;;;5031931;28;20087;-78
2023/09/07 06:20:42;;;;;;;23.70;11.85;;;;;;;;;;5017835;28;20021;-78
2023/09/07 06:23:19;;;;;;;19.40;10.88;;;;;;;;;;5036112;28;20029;-75
2023/09/07 06:25:44;;;;;;;20.30;10.90;;;;;;;;;;5036710;28;20083;-75
2023/09/07 06:28:13;;;;;;;15.80;11.30;;;;;;;;;;5035758;28;20471;-75
2023/09/07 06:30:39;;;;;;;16.00;11.15;;;;;;;;;;5013739;28;20487;-74
2023/09/07 06:33:06;;;;;;;17.25;11.80;;;;;;;;;;5042654;28;20071;-75
2023/09/07 06:35:38;;;;;;;20.42;12.07;;;;;;;;;;5050698;28;20066;-76
2023/09/07 06:38:05;;;;;;;23.95;11.93;;;;;;;;;;5020979;28;20053;-75
2023/09/07 06:40:31;;;;;;;19.23;12.15;;;;;;;;;;5034760;28;20051;-75
2023/09/07 06:43:07;;;;;;;;;;;;;;;;;;;;;
2023/09/07 06:45:36;;;;;;;30.15;12.35;;;;;;;;;;5053103;28;20035;-74
2023/09/07 06:48:05;;;;;;;19.75;12.00;;;;;;;;;;5045040;28;20060;-74
2023/09/07 06:50:33;;;;;;;17.70;11.95;;;;;;;;;;5030251;28;20033;-75
2023/09/07 06:53:04;;;;;;;21.77;12.25;;;;;;;;;;5037141;28;20049;-75
2023/09/07 06:55:33;;;;;;;23.95;11.70;;;;;;;;;;5037155;28;20021;-75
2023/09/07 06:58:07;;;;;;;22.05;11.93;;;;;;;;;;5053491;28;20376;-76
2023/09/07 07:00:34;;;;;;;26.38;12.73;;;;;;;;;;5035906;28;20401;-74
2023/09/07 07:03:00;;;;;;;25.15;12.27;;;;;;;;;;5023321;28;20093;-75
2023/09/07 07:05:28;;;;;;;22.00;13.00;;;;;;;;;;5023588;28;20028;-75
2023/09/07 07:07:53;;;;;;;33.45;14.82;;;;;;;;;;5005557;28;20045;-76
2023/09/07 07:10:19;;;;;;;17.25;11.25;;;;;;;;;;5030231;28;20036;-76
2023/09/07 07:12:45;;;;;;;25.27;12.45;;;;;;;;;;5036234;28;20060;-75
2023/09/07 07:15:11;;;;;;;19.35;11.43;;;;;;;;;;5019549;28;20445;-76
2023/09/07 07:17:37;;;;;;;19.95;11.70;;;;;;;;;;5023773;28;20040;-76
2023/09/07 07:20:03;;;;;;;22.83;12.93;;;;;;;;;;5056014;28;20028;-75
2023/09/07 07:22:28;;;;;;;23.33;12.23;;;;;;;;;;5023439;28;20186;-76
2023/09/07 07:24:55;;;;;;;20.55;11.93;;;;;;;;;;5037308;28;20029;-76
2023/09/07 07:27:21;;;;;;;25.60;11.50;;;;;;;;;;5038678;28;20025;-75
2023/09/07 07:29:47;;;;;;;17.67;11.85;;;;;;;;;;5022424;28;20488;-77
2023/09/07 07:32:14;;;;;;;17.33;10.60;;;;;;;;;;5027103;28;20037;-76
2023/09/07 07:34:39;;;;;;;19.88;11.73;;;;;;;;;;5043768;28;20397;-76
2023/09/07 07:37:05;;;;;;;18.92;11.05;;;;;;;;;;5031159;28;20029;-76
2023/09/07 07:39:30;;;;;;;22.42;10.85;;;;;;;;;;5021807;28;20110;-77
2023/09/07 07:41:56;;;;;;;18.85;10.77;;;;;;;;;;5040561;28;20030;-76
2023/09/07 07:44:21;;;;;;;19.38;11.73;;;;;;;;;;5044450;28;20322;-76
2023/09/07 07:46:47;;;;;;;16.30;11.30;;;;;;;;;;5024374;28;20033;-75
2023/09/07 07:49:13;;;;;;;18.10;10.90;;;;;;;;;;5050052;28;20069;-77
2023/09/07 07:51:38;;;;;;;27.90;12.60;;;;;;;;;;5043298;28;20021;-76
2023/09/07 07:54:04;;;;;;;18.30;10.35;;;;;;;;;;5039228;28;20030;-74
2023/09/07 07:56:29;;;;;;;20.65;11.98;;;;;;;;;;5023264;28;20046;-75
2023/09/07 07:58:55;;;;;;;21.40;11.27;;;;;;;;;;5060154;28;20084;-76
2023/09/07 08:01:21;;;;;;;15.10;9.65;;;;;;;;;;5052725;28;20028;-78
2023/09/07 08:03:46;;;;;;;19.35;10.48;;;;;;;;;;5029267;28;20040;-75
2023/09/07 08:06:12;;;;;;;17.08;9.40;;;;;;;;;;5026290;28;20436;-77
2023/09/07 08:08:39;;;;;;;21.70;10.85;;;;;;;;;;5042522;28;20451;-75
2023/09/07 08:11:05;;;;;;;19.17;11.02;;;;;;;;;;5019673;28;20091;-76
2023/09/07 08:13:34;;;;;;;14.60;9.63;;;;;;;;;;5043739;28;20025;-75
2023/09/07 08:16:05;;;;;;;19.92;10.52;;;;;;;;;;5020536;28;20120;-75
2023/09/07 08:18:35;;;;;;;17.58;9.25;;;;;;;;;;5011763;28;20063;-75
2023/09/07 08:21:01;;;;;;;19.00;9.05;;;;;;;;;;5041937;28;20466;-75
2023/09/07 08:23:26;;;;;;;17.85;7.82;;;;;;;;;;5023635;28;20034;-76
2023/09/07 08:25:52;;;;;;;13.60;7.32;;;;;;;;;;5028126;28;20021;-76
2023/09/07 08:28:18;;;;;;;13.23;8.02;;;;;;;;;;5017578;28;20474;-76
2023/09/07 08:30:45;;;;;;;16.60;8.65;;;;;;;;;;5040576;28;20093;-75
2023/09/07 08:33:10;;;;;;;14.85;8.52;;;;;;;;;;5010879;28;20033;-76
2023/09/07 08:35:43;;;;;;;11.48;8.38;;;;;;;;;;5039705;28;20040;-75
2023/09/07 08:38:10;;;;;;;17.52;7.97;;;;;;;;;;5021755;28;20028;-76
2023/09/07 08:40:37;;;;;;;12.48;6.85;;;;;;;;;;5028004;28;20032;-77
2023/09/07 08:43:05;;;;;;;11.07;6.78;;;;;;;;;;5028341;28;20170;-76
2023/09/07 08:45:40;;;;;;;9.98;6.15;;;;;;;;;;5045244;28;20037;-76
2023/09/07 08:48:07;;;;;;;8.77;6.53;;;;;;;;;;5032407;28;20026;-77
2023/09/07 08:50:33;;;;;;;13.00;6.38;;;;;;;;;;5036060;28;20051;-76
2023/09/07 08:52:59;;;;;;;8.10;6.28;;;;;;;;;;5024554;28;20492;-77
2023/09/07 08:55:25;;;;;;;8.15;6.07;;;;;;;;;;5022174;28;20382;-77
2023/09/07 08:57:51;;;;;;;10.98;6.43;;;;;;;;;;5031811;28;20078;-76
2023/09/07 09:00:17;;;;;;;9.95;5.88;;;;;;;;;;5014639;28;20449;-75
2023/09/07 09:02:47;;;;;;;10.55;6.35;;;;;;;;;;5023759;28;20029;-77
2023/09/07 09:05:14;;;;;;;12.73;6.30;;;;;;;;;;5034608;28;20117;-75
2023/09/07 09:07:40;;;;;;;11.13;5.85;;;;;;;;;;5028057;28;20325;-76
2023/09/07 09:10:07;;;;;;;19.63;9.48;;;;;;;;;;5022750;28;20053;-75
2023/09/07 09:12:33;;;;;;;12.50;6.78;;;;;;;;;;5047360;28;20030;-75
2023/09/07 09:15:06;;;;;;;10.35;6.47;;;;;;;;;;5002413;28;20128;-75
2023/09/07 09:17:31;;;;;;;7.68;5.75;;;;;;;;;;5028729;28;20039;-76
2023/09/07 09:19:58;;;;;;;12.02;6.80;;;;;;;;;;5028988;28;20408;-77
2023/09/07 09:22:24;;;;;;;7.05;5.32;;;;;;;;;;5041518;28;20112;-74
2023/09/07 09:24:50;;;;;;;18.05;6.80;;;;;;;;;;5048752;28;20458;-75
2023/09/07 09:27:16;;;;;;;9.25;5.68;;;;;;;;;;5022433;28;20064;-75
2023/09/07 09:29:41;;;;;;;12.70;6.05;;;;;;;;;;5017822;28;20116;-77
2023/09/07 09:32:07;;;;;;;7.53;4.95;;;;;;;;;;5035594;28;20033;-75
2023/09/07 09:34:37;;;;;;;10.02;5.50;;;;;;;;;;5029602;28;20075;-76
2023/09/07 09:37:03;;;;;;;9.38;6.68;;;;;;;;;;5047068;28;20064;-75
2023/09/07 09:39:29;;;;;;;11.98;6.40;;;;;;;;;;5043436;28;20021;-77
2023/09/07 09:41:55;;;;;;;9.02;6.32;;;;;;;;;;5022794;28;20040;-77
2023/09/07 09:44:26;;;;;;;12.82;7.40;;;;;;;;;;5013552;28;20038;-75
2023/09/07 09:46:54;;;;;;;13.27;6.20;;;;;;;;;;5040637;28;20020;-76
2023/09/07 09:49:22;;;;;;;14.75;6.18;;;;;;;;;;5006051;28;20024;-74
2023/09/07 09:51:50;;;;;;;21.42;7.32;;;;;;;;;;5033099;28;20098;-76
2023/09/07 09:54:23;;;;;;;8.57;6.07;;;;;;;;;;5045412;28;20085;-75
2023/09/07 09:56:48;;;;;;;10.48;6.93;;;;;;;;;;5005134;28;20048;-76
2023/09/07 09:59:14;;;;;;;13.13;6.93;;;;;;;;;;5024012;28;20490;-77
2023/09/07 10:01:46;;;;;;;10.55;6.57;;;;;;;;;;5021676;28;20029;-74
2023/09/07 10:04:14;;;;;;;14.82;7.22;;;;;;;;;;5027887;28;20033;-75
2023/09/07 10:06:51;;;;;;;11.18;6.90;;;;;;;;;;5028439;28;20024;-77
2023/09/07 10:09:19;;;;;;;11.60;6.60;;;;;;;;;;5025319;28;20113;-75
2023/09/07 10:11:52;;;;;;;9.82;6.75;;;;;;;;;;5030839;28;20052;-75
2023/09/07 10:14:18;;;;;;;14.02;6.50;;;;;;;;;;5033697;28;20034;-76
2023/09/07 10:16:55;;;;;;;18.83;7.40;;;;;;;;;;5035884;28;20036;-78
2023/09/07 10:19:22;;;;;;;10.80;5.30;;;;;;;;;;5048579;28;20075;-75
2023/09/07 10:21:49;;;;;;;11.75;7.50;;;;;;;;;;5031280;28;20169;-75
2023/09/07 10:24:39;;;;;;;17.42;5.45;;;;;;;;;;5036298;28;20029;-76
2023/09/07 10:27:07;;;;;;;10.63;5.50;;;;;;;;;;5015208;28;20082;-76
2023/09/07 10:29:49;;;;;;;8.73;6.10;;;;;;;;;;5020819;28;20041;-76
2023/09/07 10:32:16;;;;;;;15.18;5.75;;;;;;;;;;5031628;28;20025;-74
2023/09/07 10:34:45;;;;;;;8.85;5.40;;;;;;;;;;5038618;28;20025;-76
2023/09/07 10:37:14;;;;;;;6.82;5.30;;;;;;;;;;5027704;28;20037;-75
2023/09/07 10:39:43;;;;;;;7.65;5.85;;;;;;;;;;5047329;28;20121;-77
2023/09/07 10:42:23;;;;;;;7.68;5.40;;;;;;;;;;5026169;28;20112;-75
2023/09/07 10:44:49;;;;;;;8.15;5.80;;;;;;;;;;5025605;28;20293;-75
2023/09/07 10:47:15;;;;;;;11.10;6.18;;;;;;;;;;5041025;28;20029;-77
2023/09/07 10:49:41;;;;;;;7.30;4.95;;;;;;;;;;5054542;28;20041;-77
2023/09/07 10:52:07;;;;;;;15.02;5.97;;;;;;;;;;5050394;28;20033;-75
2023/09/07 10:54:32;;;;;;;9.10;6.22;;;;;;;;;;5035616;28;20059;-76
2023/09/07 10:57:09;;;;;;;8.60;5.25;;;;;;;;;;5045308;28;20052;-77
2023/09/07 10:59:34;;;;;;;7.70;5.22;;;;;;;;;;5019693;28;20040;-76
2023/09/07 11:02:05;;;;;;;14.77;6.63;;;;;;;;;;5046357;28;20025;-76
2023/09/07 11:04:30;;;;;;;9.68;5.55;;;;;;;;;;5027413;28;20040;-73
2023/09/07 11:06:56;;;;;;;11.02;5.13;;;;;;;;;;5024046;28;20037;-76
2023/09/07 11:09:21;;;;;;;8.57;5.18;;;;;;;;;;5045353;28;20021;-77
2023/09/07 11:11:47;;;;;;;8.00;4.90;;;;;;;;;;5020807;28;20052;-76
2023/09/07 11:14:12;;;;;;;9.43;5.00;;;;;;;;;;5041320;28;20159;-75
2023/09/07 11:16:40;;;;;;;5.97;4.68;;;;;;;;;;5022625;28;20573;-75
2023/09/07 11:19:08;;;;;;;17.27;5.82;;;;;;;;;;5047974;28;20823;-75
2023/09/07 11:21:35;;;;;;;10.88;5.45;;;;;;;;;;5023279;28;20218;-75
2023/09/07 11:24:04;;;;;;;12.65;6.13;;;;;;;;;;5016109;28;20020;-74
2023/09/07 11:26:41;;;;;;;8.30;5.53;;;;;;;;;;5033372;28;20025;-75
2023/09/07 11:29:06;;;;;;;8.13;5.40;;;;;;;;;;5056454;28;20021;-76
2023/09/07 11:31:33;;;;;;;10.38;5.15;;;;;;;;;;5053224;28;20403;-75
2023/09/07 11:33:58;;;;;;;6.97;5.05;;;;;;;;;;5038470;28;20025;-76
2023/09/07 11:36:24;;;;;;;8.70;5.80;;;;;;;;;;5039847;28;20033;-75
2023/09/07 11:38:50;;;;;;;7.53;4.90;;;;;;;;;;5026363;28;20033;-75
2023/09/07 11:41:15;;;;;;;6.57;5.18;;;;;;;;;;5029818;28;20044;-76
2023/09/07 11:43:41;;;;;;;8.00;4.88;;;;;;;;;;5026722;28;20033;-75
2023/09/07 11:46:07;;;;;;;6.07;4.75;;;;;;;;;;5027068;28;20081;-75
2023/09/07 11:48:34;;;;;;;7.28;4.85;;;;;;;;;;5017618;28;20033;-77
2023/09/07 11:51:00;;;;;;;9.27;5.07;;;;;;;;;;5037673;28;20055;-75
2023/09/07 11:53:26;;;;;;;10.90;5.68;;;;;;;;;;5036324;28;20021;-74
2023/09/07 11:55:51;;;;;;;8.95;5.35;;;;;;;;;;5030129;28;20017;-74
2023/09/07 11:58:17;;;;;;;10.10;6.97;;;;;;;;;;5010419;28;20651;-75
2023/09/07 12:00:45;;;;;;;8.27;5.53;;;;;;;;;;5023469;28;20473;-77
2023/09/07 12:03:11;;;;;;;6.72;5.32;;;;;;;;;;5009989;28;20505;-75
2023/09/07 12:05:39;;;;;;;11.60;5.53;;;;;;;;;;5018157;28;20022;-74
2023/09/07 12:08:05;;;;;;;6.20;4.70;;;;;;;;;;5005436;28;20124;-77
2023/09/07 12:10:31;;;;;;;9.88;4.80;;;;;;;;;;4992995;28;20312;-75
2023/09/07 12:12:57;;;;;;;7.10;4.35;;;;;;;;;;5010269;28;20096;-75
2023/09/07 12:15:24;;;;;;;17.15;5.25;;;;;;;;;;4993830;28;20038;-76
2023/09/07 12:17:54;;;;;;;5.90;4.72;;;;;;;;;;5002714;28;20087;-76
2023/09/07 12:20:21;;;;;;;9.70;4.75;;;;;;;;;;5013285;28;20029;-76
2023/09/07 12:22:46;;;;;;;7.75;4.97;;;;;;;;;;4993745;28;20056;-76
2023/09/07 12:25:13;;;;;;;8.02;4.93;;;;;;;;;;4994204;28;20470;-76
2023/09/07 12:27:39;;;;;;;7.97;4.93;;;;;;;;;;5000666;28;20550;-76
2023/09/07 12:30:11;;;;;;;6.82;5.20;;;;;;;;;;4999866;28;20026;-76
2023/09/07 12:32:37;;;;;;;5.43;4.43;;;;;;;;;;5029834;28;20040;-76
2023/09/07 12:35:07;;;;;;;7.25;4.40;;;;;;;;;;5013824;28;20335;-76
2023/09/07 12:37:32;;;;;;;6.50;5.05;;;;;;;;;;4998477;28;20029;-77
2023/09/07 12:39:58;;;;;;;6.43;4.68;;;;;;;;;;5001378;28;20052;-74
2023/09/07 12:42:25;;;;;;;7.63;4.57;;;;;;;;;;5027456;28;20029;-75
2023/09/07 12:44:50;;;;;;;5.47;4.45;;;;;;;;;;5013259;28;20041;-76
2023/09/07 12:47:16;;;;;;;7.75;4.00;;;;;;;;;;5030754;28;20051;-74
2023/09/07 12:49:42;;;;;;;10.27;4.18;;;;;;;;;;5016519;28;20025;-74
2023/09/07 12:52:11;;;;;;;6.88;4.10;;;;;;;;;;4976095;28;20478;-76
2023/09/07 12:54:37;;;;;;;8.55;4.10;;;;;;;;;;5015279;28;20028;-74
2023/09/07 12:57:03;;;;;;;6.75;4.43;;;;;;;;;;5036427;28;20128;-75
2023/09/07 12:59:29;;;;;;;5.50;4.20;;;;;;;;;;5012114;28;20033;-75
2023/09/07 13:01:59;;;;;;;4.65;4.10;;;;;;;;;;5013756;28;20087;-76
2023/09/07 13:04:25;;;;;;;8.47;4.23;;;;;;;;;;5017928;28;20498;-75
2023/09/07 13:06:50;;;;;;;7.00;5.00;;;;;;;;;;5020208;28;20033;-75
2023/09/07 13:09:16;;;;;;;7.15;4.35;;;;;;;;;;5039275;28;20036;-75
2023/09/07 13:11:41;;;;;;;8.20;4.35;;;;;;;;;;5048238;28;20025;-75
2023/09/07 13:14:08;;;;;;;5.55;4.25;;;;;;;;;;5011441;28;20036;-74
2023/09/07 13:16:34;;;;;;;5.43;3.60;;;;;;;;;;5022176;28;20029;-76
2023/09/07 13:18:59;;;;;;;6.97;4.70;;;;;;;;;;5064131;28;20111;-74
2023/09/07 13:21:25;;;;;;;4.93;3.65;;;;;;;;;;5031619;28;20132;-77
2023/09/07 13:23:50;;;;;;;5.57;3.92;;;;;;;;;;5014834;28;20025;-74
2023/09/07 13:26:16;;;;;;;7.43;4.13;;;;;;;;;;5025833;28;20440;-75
2023/09/07 13:28:41;;;;;;;6.40;3.80;;;;;;;;;;5027203;28;20029;-75
2023/09/07 13:31:07;;;;;;;6.07;4.15;;;;;;;;;;5026827;28;20030;-74
2023/09/07 13:33:32;;;;;;;7.32;4.75;;;;;;;;;;5024478;28;20029;-74
2023/09/07 13:35:58;;;;;;;7.78;4.30;;;;;;;;;;5047002;28;20029;-75
2023/09/07 13:38:23;;;;;;;7.40;4.70;;;;;;;;;;5024469;28;20048;-73
2023/09/07 13:40:49;;;;;;;7.47;4.43;;;;;;;;;;5029652;28;20122;-75
2023/09/07 13:43:14;;;;;;;6.90;3.90;;;;;;;;;;5043836;28;20479;-74
2023/09/07 13:45:40;;;;;;;5.97;3.97;;;;;;;;;;5037464;28;20028;-75
2023/09/07 13:48:06;;;;;;;5.43;4.25;;;;;;;;;;5038746;28;20060;-76
2023/09/07 13:50:31;;;;;;;6.50;3.90;;;;;;;;;;5027225;28;20029;-74
2023/09/07 13:52:57;;;;;;;6.68;4.57;;;;;;;;;;5051958;28;20033;-74
2023/09/07 13:55:25;;;;;;;12.45;4.38;;;;;;;;;;5051535;28;20129;-76
2023/09/07 13:57:50;;;;;;;6.00;4.07;;;;;;;;;;5040775;28;20548;-73
2023/09/07 14:00:16;;;;;;;6.55;4.50;;;;;;;;;;5031571;28;20034;-74
2023/09/07 14:02:41;;;;;;;4.95;4.00;;;;;;;;;;4998841;28;20704;-75
2023/09/07 14:05:08;;;;;;;11.32;4.40;;;;;;;;;;5014446;28;20417;-74
2023/09/07 14:07:33;;;;;;;7.35;4.53;;;;;;;;;;5014859;28;20498;-74
2023/09/07 14:10:00;;;;;;;10.88;4.53;;;;;;;;;;5045979;28;20118;-73
2023/09/07 14:12:26;;;;;;;7.68;4.65;;;;;;;;;;5034152;28;20032;-74
2023/09/07 14:14:52;;;;;;;7.13;4.28;;;;;;;;;;5052259;28;20074;-74
2023/09/07 14:17:18;;;;;;;9.68;3.88;;;;;;;;;;5029987;28;20029;-75
2023/09/07 14:19:45;;;;;;;10.10;4.40;;;;;;;;;;5026595;28;20078;-73
2023/09/07 14:22:14;;;;;;;5.70;4.07;;;;;;;;;;5053685;28;20025;-74
2023/09/07 14:24:39;;;;;;;5.70;4.45;;;;;;;;;;5053990;28;20033;-75
2023/09/07 14:27:06;;;;;;;5.63;3.60;;;;;;;;;;5054929;28;20367;-76
2023/09/07 14:29:31;;;;;;;12.85;4.65;;;;;;;;;;5036759;28;20025;-75
2023/09/07 14:31:57;;;;;;;6.80;4.00;;;;;;;;;;5043801;28;20393;-74
2023/09/07 14:34:23;;;;;;;6.78;4.18;;;;;;;;;;5034684;28;20048;-71
2023/09/07 14:36:48;;;;;;;4.15;3.75;;;;;;;;;;5034376;28;20028;-75
2023/09/07 14:39:14;;;;;;;5.68;4.18;;;;;;;;;;5037576;28;20028;-76
2023/09/07 14:41:40;;;;;;;5.63;3.88;;;;;;;;;;5055074;28;20083;-74